Surface Preassure
0:00 UTC
12:00 UTC (Click for larger versions)
Andrewsfield Outlook

Current time:


  12:40:00pm (GMT)      12:40:00pm (UTC)


Headline: Windy on Friday with heavy rain in the west.

Today: A cloudy day on Friday with heavy and persistent rain across western parts of the region, bringing the risk of localised flooding. Largely dry across more eastern areas. Very windy and gusty, particularly towards the north and east. Fairly mild. Maximum Temperature 10C.

Tonight: After a wet evening for most, persistent rain will ease overnight, with clear spells and showers developing, possibly wintry on hills. Staying windy and frost-free. Minimum Temperature 6C.

Saturday: A day of sunshine and blustery showers, heavy at times, and possibly wintry on the hills. Staying windy. Colder, with a noticeable wind chill. Maximum Temperature 8C.

Outlook for Sunday to Tuesday: Heavy rain clearing on Sunday to bright spells and a few showers. Turning windy on Monday with spells of rain. Colder by Tuesday with sunshine and blustery showers.

Nearby METAR/TAF

Stansted (EGSS)


Current conditions: MVFR

METAR: EGSS 211220Z AUTO 23018G28KT 9999 OVC027 08/03 Q1021

TAF: TAF EGSS 211104Z 2112/2218 24020G30KT 9999 SCT040 TEMPO 2122/2209 BKN012 PROB40 TEMPO 2123/2209 6000 RADZ BKN006

Southend (EGMC)


Current conditions: VFR

METAR: EGMC 211220Z 24017KT 9999 FEW035 BKN037 10/04 Q1022

TAF: TAF EGMC 211106Z 2112/2121 23020G30KT 9999 BKN030

RAF Wattisham (EGUW)


Current conditions: MVFR

METAR: EGUW 211222Z 24020G30KT 9999 BKN030 OVC100 08/03 Q1020 NOSIG RMK BLU BLU

TAF: TAF EGUW 211033Z 2112/2119 23018KT 9999 FEW025 TEMPO 2112/2119 23020G30KT PROB30 TEMPO 2116/2119 SCT023